Time;durP1;ratioP1;P1;durP2;ratioP2;P2;SDS_P1;SDS_P2;PMS_P1;PMS_P2;Temp;Humidity;BMP_temperature;BMP_pressure;BME280_temperature;BME280_humidity;BME280_pressure;Samples;Min_cycle;Max_cycle;Signal;HPM_P1;HPM_P2
2021/12/13 00:02:23;;;;;;;12.88;8.07;;;12.50;97.70;;;;;;5000454;28;20034;-86
2021/12/13 00:05:07;;;;;;;12.93;8.23;;;12.50;97.70;;;;;;4986815;28;20485;-86
2021/12/13 00:07:38;;;;;;;12.60;8.60;;;12.50;97.60;;;;;;4981419;28;20037;-86
2021/12/13 00:10:11;;;;;;;14.63;9.18;;;12.50;97.70;;;;;;4989755;28;20331;-86
2021/12/13 00:12:43;;;;;;;15.65;9.18;;;12.50;97.70;;;;;;5002705;28;20030;-86
2021/12/13 00:15:26;;;;;;;14.52;8.45;;;12.50;97.70;;;;;;4999566;28;20377;-86
2021/12/13 00:17:53;;;;;;;12.57;9.48;;;12.50;97.50;;;;;;4992385;28;20225;-86
2021/12/13 00:20:59;;;;;;;14.07;9.82;;;12.50;97.70;;;;;;4986297;28;20028;-86
2021/12/13 00:23:30;;;;;;;13.45;8.82;;;12.50;97.30;;;;;;4934244;28;20582;-86
2021/12/13 00:25:59;;;;;;;13.25;8.75;;;12.40;97.70;;;;;;4991528;28;20322;-86
2021/12/13 00:28:31;;;;;;;13.02;8.85;;;12.50;97.70;;;;;;4991142;28;20101;-86
2021/12/13 00:31:38;;;;;;;15.65;8.73;;;12.50;97.70;;;;;;4982585;28;20050;-86
2021/12/13 00:34:29;;;;;;;13.95;8.85;;;12.50;97.50;;;;;;4942063;28;20129;-86
2021/12/13 00:37:03;;;;;;;14.15;8.88;;;12.50;97.50;;;;;;5001074;28;20497;-86
2021/12/13 00:39:33;;;;;;;13.60;9.30;;;12.40;97.60;;;;;;4989796;28;20040;-86
2021/12/13 00:42:03;;;;;;;15.05;9.32;;;12.40;97.70;;;;;;4989475;28;20586;-86
2021/12/13 00:44:47;;;;;;;15.88;9.05;;;12.40;97.70;;;;;;5008860;28;20043;-86
2021/12/13 00:47:19;;;;;;;12.07;8.50;;;12.40;97.50;;;;;;5004815;28;20035;-87
2021/12/13 00:49:48;;;;;;;14.40;9.10;;;12.40;97.70;;;;;;5020252;28;20061;-86
2021/12/13 00:52:16;;;;;;;14.63;9.52;;;12.40;97.70;;;;;;5000054;28;20032;-87
2021/12/13 00:54:43;;;;;;;15.20;9.68;;;12.40;97.80;;;;;;4993539;28;20572;-86
2021/12/13 00:57:25;;;;;;;14.70;9.70;;;12.40;97.80;;;;;;4980293;28;20034;-87
2021/12/13 00:59:57;;;;;;;16.10;9.80;;;12.40;97.70;;;;;;4985428;28;20099;-86
2021/12/13 01:02:25;;;;;;;13.50;9.02;;;12.40;97.70;;;;;;5027026;28;20549;-87
2021/12/13 01:05:33;;;;;;;15.38;10.23;;;12.40;97.80;;;;;;5007426;28;20314;-86
2021/12/13 01:08:31;;;;;;;13.63;8.98;;;12.40;97.70;;;;;;4941447;28;20416;-86
2021/12/13 01:11:19;;;;;;;15.85;9.73;;;12.40;97.70;;;;;;4875238;28;20148;-86
2021/12/13 01:13:51;;;;;;;13.85;9.40;;;12.40;97.40;;;;;;4963460;28;20252;-86
2021/12/13 01:21:56;;;;;;;15.55;10.40;;;12.40;97.70;;;;;;5013834;28;20041;-86
2021/12/13 01:27:47;;;;;;;14.65;9.68;;;12.40;97.70;;;;;;4944145;28;20041;-87
2021/12/13 01:30:21;;;;;;;15.52;9.52;;;12.40;97.40;;;;;;4990342;28;20045;-86
2021/12/13 01:32:54;;;;;;;17.35;10.60;;;12.40;97.70;;;;;;5005366;28;20044;-86
2021/12/13 01:35:27;;;;;;;15.77;10.77;;;12.40;97.70;;;;;;5008917;28;20017;-87
2021/12/13 01:37:54;;;;;;;16.60;10.40;;;12.40;97.60;;;;;;4989919;28;20033;-86
2021/12/13 01:40:27;;;;;;;13.90;9.60;;;12.30;97.70;;;;;;4999035;28;20987;-87
2021/12/13 01:43:01;;;;;;;16.10;9.85;;;12.30;97.60;;;;;;5025721;28;20243;-86
2021/12/13 01:45:29;;;;;;;15.73;9.73;;;12.30;97.70;;;;;;4975435;28;20544;-86
2021/12/13 01:47:56;;;;;;;14.40;9.13;;;12.30;97.70;;;;;;5011657;28;20143;-87
2021/12/13 01:50:31;;;;;;;14.85;9.48;;;12.30;97.70;;;;;;4998201;28;20570;-86
2021/12/13 01:53:00;;;;;;;15.43;9.90;;;12.30;97.50;;;;;;4991070;28;20215;-86
2021/12/13 01:55:26;;;;;;;14.07;9.88;;;12.30;97.60;;;;;;4982091;28;20108;-85
2021/12/13 01:58:20;;;;;;;14.45;10.50;;;12.30;97.70;;;;;;4991206;28;20213;-86
2021/12/13 02:03:43;;;;;;;15.32;9.27;;;12.30;97.00;;;;;;5024726;28;20597;-86
2021/12/13 02:06:09;;;;;;;15.20;9.32;;;12.30;97.40;;;;;;4992111;28;20852;-86
2021/12/13 02:08:36;;;;;;;14.75;8.70;;;12.30;97.50;;;;;;5004524;28;20398;-86
2021/12/13 02:11:03;;;;;;;14.27;9.45;;;12.20;97.60;;;;;;4986781;28;20021;-86
2021/12/13 02:13:37;;;;;;;13.82;8.77;;;12.30;97.60;;;;;;4988278;28;20477;-86
2021/12/13 02:18:58;;;;;;;13.25;8.88;;;12.20;97.60;;;;;;5012748;28;20060;-86
2021/12/13 02:21:29;;;;;;;14.57;10.27;;;12.20;97.60;;;;;;5005211;28;20009;-86
2021/12/13 02:24:05;;;;;;;13.68;9.35;;;12.20;97.60;;;;;;5003703;28;20064;-86
2021/12/13 02:26:33;;;;;;;13.10;8.82;;;12.20;97.60;;;;;;4981092;28;20029;-86
2021/12/13 02:29:11;;;;;;;14.68;9.40;;;12.20;97.60;;;;;;5006615;28;20398;-86
2021/12/13 02:31:39;;;;;;;14.23;9.52;;;12.20;97.50;;;;;;4998474;28;20480;-86
2021/12/13 02:34:12;;;;;;;13.45;9.20;;;12.20;97.60;;;;;;5012830;28;20024;-86
2021/12/13 02:36:43;;;;;;;11.90;8.05;;;12.20;97.50;;;;;;4998154;28;20048;-86
2021/12/13 02:39:15;;;;;;;12.82;8.65;;;12.20;97.60;;;;;;5011927;28;20033;-86
2021/12/13 02:41:43;;;;;;;11.93;8.05;;;12.20;97.50;;;;;;5017427;28;20246;-86
2021/12/13 02:44:17;;;;;;;13.05;9.13;;;12.20;98.00;;;;;;5002566;28;20021;-86
2021/12/13 02:46:45;;;;;;;13.55;9.00;;;12.20;97.60;;;;;;5026051;28;20032;-86
2021/12/13 02:49:14;;;;;;;12.40;8.73;;;12.20;97.60;;;;;;5020067;28;20104;-86
2021/12/13 02:51:44;;;;;;;14.25;9.20;;;12.20;97.60;;;;;;5007072;28;20245;-86
2021/12/13 02:54:19;;;;;;;13.90;8.70;;;12.20;97.60;;;;;;5016001;28;20366;-85
2021/12/13 02:56:58;;;;;;;14.82;9.15;;;12.20;97.50;;;;;;5006076;28;20629;-85
2021/12/13 02:59:27;;;;;;;12.05;8.30;;;12.20;97.90;;;;;;5006869;28;20090;-86
2021/12/13 03:02:01;;;;;;;13.27;8.70;;;12.20;97.60;;;;;;5001832;28;20124;-86
2021/12/13 03:04:29;;;;;;;12.98;8.65;;;12.20;97.50;;;;;;5031262;28;20033;-86
2021/12/13 03:07:09;;;;;;;12.38;8.05;;;12.20;97.60;;;;;;5023001;28;20281;-86
2021/12/13 03:09:38;;;;;;;11.13;7.75;;;12.20;97.50;;;;;;5016368;28;20035;-86
2021/12/13 03:12:07;;;;;;;12.90;8.18;;;12.20;97.60;;;;;;5012346;28;20024;-86
2021/12/13 03:14:38;;;;;;;13.07;8.27;;;12.20;97.60;;;;;;5015228;28;20051;-86
2021/12/13 03:17:19;;;;;;;12.20;8.48;;;12.10;97.60;;;;;;5010558;28;20104;-87
2021/12/13 03:20:05;;;;;;;12.65;8.02;;;12.10;97.30;;;;;;5016376;28;20114;-86
2021/12/13 03:22:56;;;;;;;11.30;7.78;;;12.10;97.40;;;;;;4999138;28;20102;-86
2021/12/13 03:25:42;;;;;;;11.45;7.80;;;12.10;97.20;;;;;;5014898;28;20053;-86
2021/12/13 03:28:11;;;;;;;11.98;7.63;;;12.10;97.30;;;;;;5045245;28;20094;-87
2021/12/13 03:31:03;;;;;;;11.85;7.68;;;12.10;97.50;;;;;;4988846;28;20120;-86
2021/12/13 03:33:45;;;;;;;11.05;7.53;;;12.10;97.30;;;;;;4991660;28;20036;-87
2021/12/13 03:36:17;;;;;;;12.13;8.13;;;12.10;97.50;;;;;;5027348;28;20032;-86
2021/12/13 03:38:50;;;;;;;11.05;7.13;;;12.10;97.60;;;;;;5000676;28;20473;-86
2021/12/13 03:41:23;;;;;;;10.85;7.35;;;12.10;97.50;;;;;;5041076;28;20029;-86
2021/12/13 03:43:54;;;;;;;11.95;7.82;;;12.10;97.50;;;;;;4993568;28;20769;-87
2021/12/13 03:46:23;;;;;;;12.25;8.85;;;12.10;97.50;;;;;;5036060;28;20090;-86
2021/12/13 03:48:51;;;;;;;12.02;7.43;;;12.00;97.50;;;;;;4980062;28;20384;-86
2021/12/13 03:51:29;;;;;;;12.00;8.00;;;12.10;97.60;;;;;;5015625;28;20019;-86
2021/12/13 03:53:57;;;;;;;11.50;7.50;;;12.10;97.50;;;;;;5026432;28;20653;-86
2021/12/13 03:56:28;;;;;;;10.70;6.97;;;12.10;97.60;;;;;;5032311;28;20107;-86
2021/12/13 03:59:02;;;;;;;12.15;7.53;;;12.10;97.60;;;;;;5018213;28;20255;-86
2021/12/13 04:01:40;;;;;;;12.57;7.97;;;12.10;97.50;;;;;;5020666;28;20449;-86
2021/12/13 04:04:11;;;;;;;11.60;7.30;;;12.10;97.50;;;;;;4997522;28;20029;-86
2021/12/13 04:06:50;;;;;;;9.77;6.45;;;12.10;97.50;;;;;;5007929;28;20040;-86
2021/12/13 04:09:17;;;;;;;11.05;7.50;;;12.10;97.40;;;;;;5033818;28;20106;-86
2021/12/13 04:11:45;;;;;;;12.40;7.97;;;12.10;97.60;;;;;;5002523;28;20154;-86
2021/12/13 04:14:18;;;;;;;11.82;7.63;;;12.00;97.50;;;;;;5032358;28;20036;-86
2021/12/13 04:17:19;;;;;;;10.23;7.25;;;12.00;97.50;;;;;;5038996;28;20825;-86
2021/12/13 04:19:58;;;;;;;11.20;7.55;;;12.00;97.40;;;;;;5022953;28;20696;-86
2021/12/13 04:22:36;;;;;;;11.60;6.88;;;12.00;97.30;;;;;;5026082;28;20171;-86
2021/12/13 04:25:18;;;;;;;7.63;5.63;;;12.00;97.30;;;;;;5037111;28;20064;-87
2021/12/13 04:28:02;;;;;;;10.98;6.78;;;12.00;97.40;;;;;;5024795;28;20033;-86
2021/12/13 04:30:33;;;;;;;9.82;6.72;;;12.00;97.50;;;;;;5030703;28;20096;-86
2021/12/13 04:33:05;;;;;;;11.82;7.75;;;12.00;97.50;;;;;;4992659;28;20672;-87
2021/12/13 04:35:30;;;;;;;9.32;6.63;;;12.00;97.50;;;;;;4995305;28;20056;-86
2021/12/13 04:37:59;;;;;;;10.45;6.85;;;12.00;97.60;;;;;;5026438;28;20148;-85
2021/12/13 04:40:32;;;;;;;12.85;8.02;;;12.00;97.60;;;;;;5018112;28;20033;-86
2021/12/13 04:43:06;;;;;;;11.52;7.30;;;12.00;97.60;;;;;;5049484;28;20675;-85
2021/12/13 04:45:32;;;;;;;;;;;12.00;97.40;;;;;;5035234;28;20036;-86
2021/12/13 04:48:10;;;;;;;11.10;6.55;;;12.00;96.90;;;;;;5021680;28;20308;-85
2021/12/13 04:50:48;;;;;;;8.93;5.78;;;12.00;97.50;;;;;;5004255;28;20397;-86
2021/12/13 04:53:23;;;;;;;9.95;6.65;;;12.00;97.50;;;;;;5022090;28;20020;-86
2021/12/13 04:55:51;;;;;;;9.90;6.85;;;12.00;97.40;;;;;;5003514;28;20173;-86
2021/12/13 04:58:18;;;;;;;11.07;7.22;;;11.90;97.50;;;;;;5049389;28;20082;-86
2021/12/13 05:00:49;;;;;;;11.00;8.18;;;12.00;97.60;;;;;;5031202;28;20706;-86
2021/12/13 05:03:18;;;;;;;10.88;6.78;;;11.90;97.50;;;;;;5008467;28;20396;-86
2021/12/13 05:05:44;;;;;;;10.95;6.90;;;12.00;97.70;;;;;;5005304;28;20055;-86
2021/12/13 05:08:14;;;;;;;9.30;6.53;;;12.00;97.60;;;;;;5002144;28;20053;-86
2021/12/13 05:10:43;;;;;;;10.10;7.10;;;12.00;97.60;;;;;;5004098;28;20029;-86
2021/12/13 05:13:12;;;;;;;10.30;6.70;;;11.90;97.60;;;;;;5037314;28;20029;-86
2021/12/13 05:15:41;;;;;;;10.77;6.85;;;11.90;97.60;;;;;;5023139;28;20029;-86
2021/12/13 05:18:16;;;;;;;11.30;6.78;;;12.00;97.60;;;;;;5022454;28;20032;-86
2021/12/13 05:20:42;;;;;;;9.70;6.50;;;11.90;97.60;;;;;;5018227;28;20983;-86
2021/12/13 05:23:14;;;;;;;10.57;6.72;;;11.90;97.60;;;;;;5034505;28;20020;-85
2021/12/13 05:25:44;;;;;;;9.57;6.55;;;11.90;97.50;;;;;;5013089;28;20025;-86
2021/12/13 05:28:20;;;;;;;10.85;7.20;;;11.90;97.60;;;;;;5021939;28;20040;-86
2021/12/13 05:30:50;;;;;;;10.80;7.00;;;11.90;97.40;;;;;;5016827;28;20276;-86
2021/12/13 05:33:19;;;;;;;11.35;7.05;;;11.90;97.50;;;;;;5008976;28;20029;-86
2021/12/13 05:35:55;;;;;;;10.77;6.50;;;12.00;97.70;;;;;;5035338;28;20021;-86
2021/12/13 05:38:29;;;;;;;11.00;6.70;;;11.90;97.60;;;;;;5012149;28;20024;-86
2021/12/13 05:40:56;;;;;;;11.32;6.80;;;11.90;97.60;;;;;;5040597;28;20429;-87
2021/12/13 05:43:37;;;;;;;9.35;6.13;;;11.90;97.60;;;;;;5025000;28;20515;-86
2021/12/13 05:46:10;;;;;;;9.70;6.25;;;11.90;97.50;;;;;;5023774;28;20029;-86
2021/12/13 05:48:35;;;;;;;8.27;5.90;;;11.90;97.50;;;;;;5005370;28;20443;-86
2021/12/13 05:51:27;;;;;;;9.55;6.35;;;11.90;97.60;;;;;;5013534;28;20024;-86
2021/12/13 05:54:04;;;;;;;9.38;5.97;;;11.90;97.20;;;;;;4999535;28;20262;-85
2021/12/13 05:56:45;;;;;;;9.73;6.25;;;11.90;97.50;;;;;;5025813;28;20033;-86
2021/12/13 05:59:22;;;;;;;10.48;6.05;;;11.90;97.30;;;;;;5023373;28;20025;-86
2021/12/13 06:02:12;;;;;;;9.25;6.07;;;11.90;97.50;;;;;;5012605;28;20047;-85
2021/12/13 06:04:44;;;;;;;9.73;6.35;;;11.90;97.30;;;;;;5003866;28;20032;-87
2021/12/13 06:07:41;;;;;;;9.38;6.28;;;11.90;97.40;;;;;;5029227;28;20040;-86
2021/12/13 06:10:16;;;;;;;8.98;6.05;;;11.90;97.40;;;;;;4989082;28;20028;-86
2021/12/13 06:12:58;;;;;;;9.00;6.20;;;11.90;97.40;;;;;;5016066;28;20028;-86
2021/12/13 06:15:35;;;;;;;12.30;6.57;;;11.90;97.30;;;;;;5013049;28;20582;-86
2021/12/13 06:18:04;;;;;;;10.35;5.47;;;11.90;97.60;;;;;;5038010;28;20025;-86
2021/12/13 06:20:48;;;;;;;8.40;5.18;;;11.90;97.60;;;;;;5037302;28;20143;-86
2021/12/13 06:23:22;;;;;;;9.02;5.53;;;11.90;97.50;;;;;;5034202;28;20237;-86
2021/12/13 06:25:52;;;;;;;;;;;11.90;97.50;;;;;;5014243;28;20474;-86
2021/12/13 06:28:24;;;;;;;7.43;4.95;;;11.90;97.00;;;;;;5022797;28;19913;-87
2021/12/13 06:30:55;;;;;;;8.02;5.22;;;11.90;97.50;;;;;;5029802;28;20452;-86
2021/12/13 06:33:22;;;;;;;9.02;5.70;;;11.90;97.50;;;;;;5020550;28;20020;-86
2021/12/13 06:35:52;;;;;;;8.90;5.97;;;11.90;97.60;;;;;;5018620;28;20653;-85
2021/12/13 06:38:50;;;;;;;8.43;5.68;;;11.90;97.70;;;;;;5009466;28;20125;-86
2021/12/13 06:41:28;;;;;;;7.65;5.20;;;11.90;97.40;;;;;;5038460;28;20028;-86
2021/12/13 06:44:05;;;;;;;8.38;5.43;;;11.90;97.30;;;;;;5055562;28;20060;-86
2021/12/13 06:46:55;;;;;;;7.60;5.30;;;11.90;97.60;;;;;;5026975;28;20273;-86
2021/12/13 06:49:44;;;;;;;7.00;5.05;;;11.90;97.30;;;;;;5032999;28;20028;-87
2021/12/13 06:52:12;;;;;;;8.35;5.57;;;11.90;97.30;;;;;;5025551;28;20048;-85
2021/12/13 06:55:09;;;;;;;7.43;5.00;;;11.90;97.60;;;;;;4992068;28;24025;-86
2021/12/13 06:57:48;;;;;;;6.28;4.38;;;11.80;97.40;;;;;;4999121;28;20044;-86
2021/12/13 07:00:26;;;;;;;6.80;5.13;;;11.90;97.60;;;;;;5031604;28;20025;-86
2021/12/13 07:02:57;;;;;;;7.53;5.05;;;11.90;97.70;;;;;;5053776;28;20058;-87
2021/12/13 07:05:27;;;;;;;7.47;5.30;;;11.90;97.90;;;;;;5047672;28;20115;-87
2021/12/13 07:08:19;;;;;;;6.63;4.47;;;11.80;97.60;;;;;;5002994;28;20021;-87
2021/12/13 07:11:07;;;;;;;7.53;4.90;;;11.80;97.40;;;;;;5014245;28;20589;-87
2021/12/13 07:13:48;;;;;;;7.90;5.00;;;11.90;97.50;;;;;;5047985;28;20313;-86
2021/12/13 07:16:25;;;;;;;6.10;4.38;;;11.80;97.30;;;;;;5007017;28;20106;-86
2021/12/13 07:19:01;;;;;;;6.05;4.18;;;11.80;97.50;;;;;;5024628;28;20028;-86
2021/12/13 07:21:26;;;;;;;5.95;4.13;;;11.80;97.60;;;;;;5003629;28;20024;-86
2021/12/13 07:24:05;;;;;;;6.05;4.47;;;11.80;97.60;;;;;;5017013;28;20465;-86
2021/12/13 07:26:30;;;;;;;5.15;3.83;;;11.80;97.40;;;;;;4997632;28;20441;-86
2021/12/13 07:28:57;;;;;;;7.18;4.40;;;11.80;97.60;;;;;;5037139;28;20020;-86
2021/12/13 07:31:23;;;;;;;5.40;4.10;;;11.80;97.60;;;;;;5011083;28;20145;-85
2021/12/13 07:33:49;;;;;;;6.60;3.83;;;11.80;97.60;;;;;;5023608;28;20592;-86
2021/12/13 07:36:20;;;;;;;5.95;3.80;;;11.80;97.60;;;;;;5003573;28;20150;-84
2021/12/13 07:39:00;;;;;;;5.82;3.75;;;11.80;97.60;;;;;;5007991;28;20105;-84
2021/12/13 07:41:37;;;;;;;4.82;3.20;;;11.80;97.60;;;;;;4992000;28;20028;-84
2021/12/13 07:44:03;;;;;;;6.68;3.50;;;11.80;97.50;;;;;;5013265;28;20435;-84
2021/12/13 07:46:31;;;;;;;4.88;3.55;;;11.80;97.50;;;;;;5012004;28;20037;-84
2021/12/13 07:49:10;;;;;;;4.50;3.30;;;11.80;97.50;;;;;;5025115;28;20107;-84
2021/12/13 07:51:47;;;;;;;6.03;3.47;;;11.80;97.30;;;;;;5031174;28;20385;-84
2021/12/13 07:54:16;;;;;;;4.63;3.60;;;11.80;97.50;;;;;;5006957;28;20025;-84
2021/12/13 08:04:26;;;;;;;3.92;3.00;;;11.80;97.10;;;;;;5018248;28;20064;-84
2021/12/13 08:07:41;;;;;;;7.15;2.90;;;11.80;97.40;;;;;;5022290;28;20029;-84
2021/12/13 08:10:17;;;;;;;3.88;3.15;;;11.80;97.30;;;;;;5010140;28;20143;-84
2021/12/13 08:13:00;;;;;;;4.55;3.33;;;11.80;97.30;;;;;;5033750;28;20032;-84
2021/12/13 08:15:39;;;;;;;4.43;3.47;;;11.80;97.30;;;;;;5018012;28;20285;-84
2021/12/13 08:18:08;;;;;;;4.55;3.15;;;11.80;97.40;;;;;;5018298;28;20194;-84
2021/12/13 08:20:41;;;;;;;4.22;3.25;;;11.80;97.60;;;;;;5004299;28;20496;-84
2021/12/13 08:23:16;;;;;;;6.15;3.25;;;11.80;97.50;;;;;;5004935;28;20273;-84
2021/12/13 08:25:47;;;;;;;5.40;3.53;;;11.80;97.40;;;;;;5009037;28;20154;-84
2021/12/13 08:28:17;;;;;;;7.13;3.75;;;11.80;97.60;;;;;;5014739;28;20317;-84
2021/12/13 08:30:54;;;;;;;5.45;3.58;;;11.80;97.50;;;;;;5012744;28;20351;-84
2021/12/13 08:33:40;;;;;;;5.13;3.80;;;11.80;97.30;;;;;;5012819;28;20029;-84
2021/12/13 08:36:26;;;;;;;4.93;3.33;;;11.80;97.50;;;;;;5000084;28;20126;-84
2021/12/13 08:39:09;;;;;;;4.50;3.13;;;11.80;97.40;;;;;;5004096;28;20388;-84
2021/12/13 08:41:45;;;;;;;4.75;3.50;;;11.80;97.30;;;;;;5025037;28;20082;-84
2021/12/13 08:44:10;;;;;;;5.10;3.78;;;11.80;97.50;;;;;;5004155;28;21197;-85
2021/12/13 08:46:45;;;;;;;5.28;3.58;;;11.80;97.60;;;;;;5018032;28;20029;-84
2021/12/13 08:49:18;;;;;;;4.90;3.42;;;11.80;97.60;;;;;;5002256;28;20031;-84
2021/12/13 08:52:05;;;;;;;4.97;3.92;;;11.80;97.70;;;;;;5001749;28;20096;-84
2021/12/13 08:54:34;;;;;;;5.22;3.67;;;11.80;97.30;;;;;;5023951;28;20029;-85
2021/12/13 08:57:00;;;;;;;5.85;4.35;;;11.80;97.60;;;;;;4989618;28;20511;-84
2021/12/13 08:59:27;;;;;;;5.05;3.42;;;11.80;97.70;;;;;;5043646;28;20329;-84
2021/12/13 09:02:01;;;;;;;5.80;3.58;;;11.80;97.70;;;;;;5047170;28;20071;-84
2021/12/13 09:04:42;;;;;;;4.03;3.15;;;11.80;97.60;;;;;;5018284;28;20048;-84
2021/12/13 09:07:14;;;;;;;4.53;3.58;;;11.80;97.40;;;;;;5000961;28;20509;-84
2021/12/13 09:09:45;;;;;;;5.30;3.80;;;11.80;97.50;;;;;;5034109;28;20032;-84
2021/12/13 09:12:14;;;;;;;5.88;3.60;;;11.80;97.60;;;;;;4995432;28;20059;-84
2021/12/13 09:14:45;;;;;;;5.30;4.00;;;11.80;97.70;;;;;;5007968;28;20032;-84
2021/12/13 09:17:25;;;;;;;5.13;3.20;;;11.80;97.60;;;;;;5044845;28;20226;-84
2021/12/13 09:20:17;;;;;;;4.45;3.83;;;11.90;97.30;;;;;;5036750;28;20037;-84
2021/12/13 09:22:57;;;;;;;4.80;3.30;;;11.80;97.40;;;;;;5013917;28;20047;-84
2021/12/13 09:25:38;;;;;;;5.78;4.18;;;11.90;97.40;;;;;;5020313;28;20051;-84
2021/12/13 09:28:21;;;;;;;5.53;4.03;;;11.90;97.30;;;;;;5014374;28;20292;-84
2021/12/13 09:31:03;;;;;;;5.40;3.38;;;11.90;97.40;;;;;;5006862;28;20037;-84
2021/12/13 09:33:31;;;;;;;5.10;3.58;;;11.90;97.30;;;;;;5022088;28;20118;-84
2021/12/13 09:36:06;;;;;;;4.60;3.63;;;11.90;97.50;;;;;;5021800;28;20033;-84
2021/12/13 09:38:46;;;;;;;5.03;3.05;;;11.90;97.40;;;;;;5016471;28;20175;-84
2021/12/13 09:41:37;;;;;;;4.38;3.08;;;11.90;97.60;;;;;;5014348;28;20025;-84
2021/12/13 09:44:29;;;;;;;4.55;3.38;;;11.90;97.50;;;;;;4993777;28;20237;-84
2021/12/13 09:47:01;;;;;;;4.22;3.22;;;11.90;97.30;;;;;;5008675;28;20159;-84
2021/12/13 09:49:48;;;;;;;5.10;2.92;;;11.90;97.30;;;;;;5014863;28;20087;-85
2021/12/13 09:52:28;;;;;;;4.57;3.20;;;12.00;97.70;;;;;;5023392;28;20465;-84
2021/12/13 09:55:16;;;;;;;6.20;3.15;;;11.90;97.70;;;;;;4994366;28;20013;-85
2021/12/13 09:57:59;;;;;;;3.88;2.92;;;12.00;97.70;;;;;;5039311;28;20120;-84
2021/12/13 10:00:27;;;;;;;4.28;3.17;;;12.00;97.40;;;;;;5004344;28;20060;-83
2021/12/13 10:02:58;;;;;;;4.35;3.15;;;11.90;97.70;;;;;;5017612;28;20040;-84
2021/12/13 10:05:30;;;;;;;3.53;3.10;;;12.00;97.60;;;;;;5012919;28;20416;-84
2021/12/13 10:08:04;;;;;;;3.88;3.08;;;12.00;97.60;;;;;;5014309;28;20103;-85
2021/12/13 10:10:55;;;;;;;4.18;3.08;;;12.00;97.70;;;;;;5037856;28;20685;-84
2021/12/13 10:13:26;;;;;;;4.93;3.38;;;12.00;97.60;;;;;;5026092;28;20033;-84
2021/12/13 10:15:59;;;;;;;4.35;2.95;;;12.00;97.60;;;;;;5024064;28;20456;-84
2021/12/13 10:18:31;;;;;;;3.70;2.80;;;12.00;97.50;;;;;;5036027;28;20039;-84
2021/12/13 10:21:05;;;;;;;3.50;2.60;;;12.00;97.50;;;;;;5016779;28;20082;-84
2021/12/13 10:23:34;;;;;;;3.00;2.33;;;12.00;97.70;;;;;;5036568;28;20032;-84
2021/12/13 10:26:05;;;;;;;3.72;2.60;;;12.00;97.70;;;;;;5037543;28;20040;-84
2021/12/13 10:28:34;;;;;;;2.97;2.53;;;12.10;97.60;;;;;;5020900;28;20060;-85
2021/12/13 10:31:06;;;;;;;3.05;2.30;;;12.10;97.80;;;;;;4995752;28;20041;-84
2021/12/13 10:33:34;;;;;;;3.83;2.65;;;12.10;97.70;;;;;;5000535;28;20043;-85
2021/12/13 10:36:02;;;;;;;3.78;2.67;;;12.10;97.80;;;;;;5039688;28;20029;-84
2021/12/13 10:38:37;;;;;;;3.45;2.80;;;12.10;97.80;;;;;;5011859;28;20044;-84
2021/12/13 10:41:08;;;;;;;3.75;2.80;;;12.10;97.70;;;;;;5017505;28;20481;-84
2021/12/13 10:43:53;;;;;;;3.38;2.60;;;12.20;97.80;;;;;;5030673;28;20401;-85
2021/12/13 10:46:25;;;;;;;3.30;2.70;;;12.20;97.50;;;;;;5013558;28;20432;-84
2021/12/13 10:49:03;;;;;;;3.25;2.75;;;12.20;97.70;;;;;;5016815;28;20501;-84
2021/12/13 10:51:41;;;;;;;3.53;2.45;;;12.20;97.70;;;;;;5011259;28;20029;-85
2021/12/13 10:54:17;;;;;;;2.47;2.20;;;12.20;97.50;;;;;;5040163;28;20048;-84
2021/12/13 10:56:54;;;;;;;2.92;2.42;;;12.20;97.70;;;;;;5009698;28;20074;-84
2021/12/13 10:59:22;;;;;;;3.65;2.28;;;12.30;97.50;;;;;;5013379;28;20044;-84
2021/12/13 11:01:53;;;;;;;4.00;2.60;;;12.30;97.80;;;;;;5018564;28;20261;-84
2021/12/13 11:04:30;;;;;;;3.10;2.28;;;12.30;98.10;;;;;;4998839;28;20044;-84
2021/12/13 11:06:56;;;;;;;3.28;2.45;;;12.30;97.60;;;;;;5009295;28;20025;-85
2021/12/13 11:09:24;;;;;;;2.88;2.33;;;12.30;97.90;;;;;;5021062;28;20035;-84
2021/12/13 11:12:03;;;;;;;2.47;2.08;;;12.30;97.80;;;;;;4999431;28;20017;-84
2021/12/13 11:14:29;;;;;;;4.28;2.45;;;12.40;97.80;;;;;;5012618;28;20486;-84
2021/12/13 11:16:59;;;;;;;3.15;2.38;;;12.40;97.90;;;;;;5022206;28;20037;-84
2021/12/13 11:19:30;;;;;;;3.70;2.63;;;12.40;97.70;;;;;;4992618;28;20367;-84
2021/12/13 11:22:01;;;;;;;3.13;2.10;;;12.40;97.70;;;;;;5004494;28;20029;-84
2021/12/13 11:24:30;;;;;;;2.58;2.10;;;12.40;97.70;;;;;;5017442;28;20078;-84
2021/12/13 11:27:01;;;;;;;3.65;2.42;;;12.40;97.70;;;;;;5019564;28;20040;-84
2021/12/13 11:29:28;;;;;;;3.38;2.70;;;12.40;97.70;;;;;;5029309;28;20094;-84
2021/12/13 11:31:55;;;;;;;3.83;2.50;;;12.40;97.80;;;;;;4994411;28;20435;-85
2021/12/13 11:34:48;;;;;;;3.63;2.75;;;12.40;97.80;;;;;;5035544;28;20464;-84
2021/12/13 11:37:55;;;;;;;4.10;2.53;;;12.50;97.30;;;;;;5014881;28;20043;-84
2021/12/13 11:40:45;;;;;;;2.45;2.20;;;12.40;97.10;;;;;;5035831;28;20384;-84
2021/12/13 11:43:35;;;;;;;3.38;2.15;;;12.50;97.30;;;;;;5035223;28;20043;-84
2021/12/13 11:46:47;;;;;;;5.88;2.50;;;12.50;97.40;;;;;;5005721;28;22227;-84
2021/12/13 11:49:33;;;;;;;3.15;2.33;;;12.50;96.90;;;;;;4994000;28;20097;-84
2021/12/13 11:52:39;;;;;;;2.50;2.17;;;12.50;97.20;;;;;;5026168;28;20036;-84
2021/12/13 11:55:39;;;;;;;3.13;1.98;;;12.50;96.90;;;;;;5023632;28;20028;-84
2021/12/13 11:58:29;;;;;;;3.00;2.50;;;12.50;97.20;;;;;;5018956;28;20591;-84
2021/12/13 12:01:43;;;;;;;3.55;2.55;;;12.50;97.30;;;;;;5001822;28;20613;-84
2021/12/13 12:04:46;;;;;;;1.92;1.67;;;12.50;96.70;;;;;;5021158;28;20394;-84
2021/12/13 12:07:14;;;;;;;1.98;1.83;;;12.50;97.20;;;;;;5030429;28;20036;-84
2021/12/13 12:10:02;;;;;;;4.38;2.42;;;12.50;97.60;;;;;;5019474;28;20102;-84
2021/12/13 12:13:05;;;;;;;2.97;2.15;;;12.50;97.20;;;;;;5005652;28;20155;-84
2021/12/13 12:15:34;;;;;;;2.58;2.10;;;12.50;97.10;;;;;;5016298;28;20416;-84
2021/12/13 12:18:03;;;;;;;4.13;2.45;;;12.50;97.70;;;;;;5027597;28;20235;-84
2021/12/13 12:20:34;;;;;;;3.22;2.30;;;12.60;97.60;;;;;;5024578;28;20393;-84
2021/12/13 12:23:07;;;;;;;2.47;2.05;;;12.60;97.60;;;;;;5003984;28;20047;-84
2021/12/13 12:25:35;;;;;;;2.97;2.63;;;12.60;97.40;;;;;;5017920;28;20517;-84
2021/12/13 12:28:08;;;;;;;2.70;2.15;;;12.50;97.60;;;;;;5054475;28;20021;-84
2021/12/13 12:30:40;;;;;;;4.50;2.47;;;12.60;97.40;;;;;;5024841;28;20120;-84
2021/12/13 12:33:10;;;;;;;2.55;1.83;;;12.60;97.50;;;;;;5021920;28;20505;-84
2021/12/13 12:35:50;;;;;;;2.95;2.63;;;12.60;97.60;;;;;;5039411;28;20230;-84
2021/12/13 12:38:24;;;;;;;3.92;2.50;;;12.60;97.20;;;;;;5006956;28;20366;-84
2021/12/13 12:41:08;;;;;;;2.40;2.05;;;12.60;97.60;;;;;;5021964;28;20063;-84
2021/12/13 12:43:36;;;;;;;;;;;12.60;97.60;;;;;;5025916;28;20083;-84
2021/12/13 12:46:12;;;;;;;3.85;2.30;;;12.60;96.40;;;;;;5014183;28;22542;-84
2021/12/13 12:48:47;;;;;;;3.83;3.00;;;12.60;97.40;;;;;;5048492;28;20032;-84
2021/12/13 12:51:19;;;;;;;4.32;3.33;;;12.60;97.10;;;;;;5037604;28;20427;-84
2021/12/13 12:54:10;;;;;;;2.63;2.03;;;12.60;97.40;;;;;;5040164;28;20035;-84
2021/12/13 12:56:35;;;;;;;7.75;2.50;;;12.60;97.00;;;;;;5038944;28;20517;-84
2021/12/13 12:59:06;;;;;;;3.10;2.22;;;12.60;97.50;;;;;;5015193;28;20260;-84
2021/12/13 13:01:46;;;;;;;2.67;2.13;;;12.60;97.00;;;;;;5022219;28;20039;-84
2021/12/13 13:04:23;;;;;;;3.28;2.30;;;12.60;97.10;;;;;;5024586;28;20257;-84
2021/12/13 13:07:00;;;;;;;3.17;2.45;;;12.60;97.50;;;;;;5003839;28;20095;-84
2021/12/13 13:09:51;;;;;;;3.63;2.30;;;12.60;97.10;;;;;;4998611;28;20020;-84
2021/12/13 13:12:35;;;;;;;2.80;2.20;;;12.70;97.10;;;;;;5021630;28;20086;-85
2021/12/13 13:15:10;;;;;;;2.78;2.30;;;12.70;97.00;;;;;;5020423;28;20359;-84
2021/12/13 13:17:39;;;;;;;2.58;2.10;;;12.70;97.20;;;;;;5008444;28;20028;-84
2021/12/13 13:20:16;;;;;;;2.30;2.10;;;12.70;97.30;;;;;;5007177;28;20252;-84
2021/12/13 13:22:44;;;;;;;2.70;2.00;;;12.70;97.30;;;;;;5014270;28;24525;-84
2021/12/13 13:25:22;;;;;;;2.53;2.05;;;12.70;97.20;;;;;;5013479;28;20024;-84
2021/12/13 13:27:48;;;;;;;2.70;2.10;;;12.70;96.90;;;;;;4999795;28;20031;-84
2021/12/13 13:30:27;;;;;;;4.53;2.20;;;12.70;97.20;;;;;;5019272;28;20246;-84
2021/12/13 13:32:54;;;;;;;3.88;2.20;;;12.70;96.70;;;;;;5019447;28;20397;-84
2021/12/13 13:35:20;;;;;;;2.65;2.05;;;12.70;97.30;;;;;;5023220;28;20029;-84
2021/12/13 13:37:46;;;;;;;2.42;2.10;;;12.70;97.30;;;;;;5030992;28;20036;-84
2021/12/13 13:40:20;;;;;;;2.05;1.80;;;12.70;97.30;;;;;;5028245;28;20036;-84
2021/12/13 13:42:57;;;;;;;2.20;1.88;;;12.70;96.90;;;;;;5042386;28;20029;-84
2021/12/13 13:45:25;;;;;;;2.30;1.50;;;12.70;96.70;;;;;;5044072;28;20021;-84
2021/12/13 13:47:55;;;;;;;2.10;1.77;;;12.70;97.10;;;;;;5009073;28;20373;-84
2021/12/13 13:50:23;;;;;;;1.95;1.45;;;12.70;97.00;;;;;;5004266;28;20485;-84